SWA1014 KBNA-KDCA
Flight info
| Callsign | SWA1014 |
|---|---|
| Flight time | 1h 14m |
| Altitude | 35000 |
| Route | CHADM4 MUNNY TONIO Q34 SITTR TRUPS5 |
| Aircraft | B738/M-VGDW/C |
Departure
| Time | 2026-05-04 18:34 |
|---|---|
| Airport | Nashville International Airport (KBNA) |
Arrival
| Time | 2026-05-04 19:48 |
|---|---|
| Airport | Ronald Reagan Washington National Airport (KDCA) |
| Time | Latitude | Longitude | Altitude | Speed | Heading |
|---|---|---|---|---|---|
| 2026-05-04 18:16 | 36.12822 | -86.66864 | 573 ft | 0 kts | 228° |
| 2026-05-04 18:28 | 36.12828 | -86.66857 | 576 ft | 2 kts | 228° |
| 2026-05-04 18:28 | 36.12838 | -86.66841 | 572 ft | 2 kts | 228° |
| 2026-05-04 18:28 | 36.12849 | -86.66827 | 573 ft | 2 kts | 226° |
| 2026-05-04 18:29 | 36.12862 | -86.66813 | 572 ft | 2 kts | 192° |
| 2026-05-04 18:29 | 36.12874 | -86.66814 | 572 ft | 1 kts | 140° |
| 2026-05-04 18:29 | 36.12877 | -86.66817 | 572 ft | 0 kts | 136° |
| 2026-05-04 18:31 | 36.12846 | -86.66789 | 571 ft | 16 kts | 148° |
| 2026-05-04 18:31 | 36.12698 | -86.66837 | 575 ft | 30 kts | 221° |
| 2026-05-04 18:31 | 36.12761 | -86.67069 | 581 ft | 40 kts | 313° |
| 2026-05-04 18:31 | 36.12960 | -86.67318 | 573 ft | 41 kts | 324° |
| 2026-05-04 18:32 | 36.13232 | -86.67365 | 567 ft | 39 kts | 5° |
| 2026-05-04 18:32 | 36.13433 | -86.67303 | 569 ft | 23 kts | 4° |
| 2026-05-04 18:32 | 36.13518 | -86.67450 | 569 ft | 22 kts | 287° |
| 2026-05-04 18:32 | 36.13564 | -86.67630 | 571 ft | 22 kts | 287° |
| 2026-05-04 18:33 | 36.13664 | -86.67717 | 569 ft | 19 kts | 13° |
| 2026-05-04 18:33 | 36.13756 | -86.67797 | 569 ft | 18 kts | 288° |
| 2026-05-04 18:33 | 36.13683 | -86.67900 | 570 ft | 18 kts | 199° |
| 2026-05-04 18:33 | 36.13513 | -86.67967 | 571 ft | 44 kts | 197° |
| 2026-05-04 18:34 | 36.13003 | -86.68166 | 580 ft | 108 kts | 198° |
| 2026-05-04 18:34 | 36.12127 | -86.68510 | 658 ft | 151 kts | 198° |
| 2026-05-04 18:34 | 36.11104 | -86.68926 | 1225 ft | 161 kts | 198° |
| 2026-05-04 18:34 | 36.10046 | -86.69337 | 2068 ft | 157 kts | 199° |
| 2026-05-04 18:35 | 36.08933 | -86.69631 | 2580 ft | 175 kts | 182° |
| 2026-05-04 18:35 | 36.07623 | -86.69280 | 2868 ft | 211 kts | 163° |
| 2026-05-04 18:35 | 36.06197 | -86.68515 | 3192 ft | 233 kts | 160° |
| 2026-05-04 18:35 | 36.04666 | -86.67644 | 3607 ft | 253 kts | 160° |
| 2026-05-04 18:36 | 36.03012 | -86.66714 | 4267 ft | 266 kts | 159° |
| 2026-05-04 18:36 | 36.01346 | -86.65783 | 5181 ft | 266 kts | 160° |
| 2026-05-04 18:36 | 35.99676 | -86.64788 | 6107 ft | 270 kts | 150° |
| 2026-05-04 18:36 | 35.98363 | -86.63119 | 6684 ft | 279 kts | 122° |
| 2026-05-04 18:37 | 35.97770 | -86.60812 | 6999 ft | 289 kts | 101° |
| 2026-05-04 18:37 | 35.97646 | -86.58305 | 6986 ft | 294 kts | 94° |
| 2026-05-04 18:37 | 35.97638 | -86.55791 | 7022 ft | 293 kts | 93° |
| 2026-05-04 18:37 | 35.97617 | -86.53269 | 7009 ft | 293 kts | 94° |
| 2026-05-04 18:38 | 35.97575 | -86.50755 | 7017 ft | 294 kts | 94° |
| 2026-05-04 18:38 | 35.97553 | -86.48226 | 7007 ft | 296 kts | 87° |
| 2026-05-04 18:38 | 35.98162 | -86.45792 | 7039 ft | 301 kts | 61° |
| 2026-05-04 18:38 | 35.99326 | -86.43625 | 7546 ft | 306 kts | 56° |
| 2026-05-04 18:39 | 36.00558 | -86.41504 | 8398 ft | 308 kts | 55° |
| 2026-05-04 18:39 | 36.01829 | -86.39339 | 9218 ft | 313 kts | 55° |
| 2026-05-04 18:39 | 36.03112 | -86.37140 | 9934 ft | 319 kts | 56° |
| 2026-05-04 18:39 | 36.04426 | -86.34873 | 10432 ft | 334 kts | 56° |
| 2026-05-04 18:40 | 36.05828 | -86.32439 | 10596 ft | 357 kts | 56° |
| 2026-05-04 18:40 | 36.07308 | -86.29860 | 10850 ft | 377 kts | 55° |
| 2026-05-04 18:40 | 36.08837 | -86.27189 | 11436 ft | 383 kts | 55° |
| 2026-05-04 18:40 | 36.10378 | -86.24489 | 12190 ft | 385 kts | 54° |
| 2026-05-04 18:41 | 36.11926 | -86.21776 | 12972 ft | 386 kts | 54° |
| 2026-05-04 18:41 | 36.13478 | -86.19052 | 13685 ft | 390 kts | 53° |
| 2026-05-04 18:41 | 36.15030 | -86.16327 | 14315 ft | 393 kts | 53° |
| 2026-05-04 18:41 | 36.16613 | -86.13543 | 14933 ft | 397 kts | 53° |
| 2026-05-04 18:42 | 36.18206 | -86.10741 | 15547 ft | 401 kts | 53° |
| 2026-05-04 18:42 | 36.19774 | -86.07858 | 16137 ft | 407 kts | 59° |
| 2026-05-04 18:42 | 36.20735 | -86.04537 | 16737 ft | 412 kts | 76° |
| 2026-05-04 18:42 | 36.21358 | -86.01058 | 17375 ft | 415 kts | 77° |
| 2026-05-04 18:43 | 36.21980 | -85.97538 | 17919 ft | 421 kts | 76° |
| 2026-05-04 18:43 | 36.22621 | -85.93984 | 18424 ft | 426 kts | 76° |
| 2026-05-04 18:43 | 36.23285 | -85.90394 | 18908 ft | 429 kts | 76° |
| 2026-05-04 18:43 | 36.23963 | -85.86782 | 19456 ft | 432 kts | 75° |
| 2026-05-04 18:44 | 36.24650 | -85.83140 | 19990 ft | 434 kts | 75° |
| 2026-05-04 18:44 | 36.25106 | -85.80725 | 20315 ft | 437 kts | 75° |
| 2026-05-04 18:44 | 36.26133 | -85.75828 | 20953 ft | 441 kts | 70° |
| 2026-05-04 18:44 | 36.27135 | -85.72219 | 21434 ft | 443 kts | 67° |
| 2026-05-04 18:45 | 36.28199 | -85.68678 | 21900 ft | 446 kts | 66° |
| 2026-05-04 18:45 | 36.29291 | -85.65064 | 22363 ft | 449 kts | 67° |
| 2026-05-04 18:45 | 36.30369 | -85.61410 | 22842 ft | 452 kts | 67° |
| 2026-05-04 18:45 | 36.31431 | -85.57720 | 23292 ft | 455 kts | 68° |
| 2026-05-04 18:46 | 36.32483 | -85.54001 | 23711 ft | 458 kts | 68° |
| 2026-05-04 18:46 | 36.33536 | -85.50251 | 24105 ft | 461 kts | 68° |
| 2026-05-04 18:46 | 36.34591 | -85.46494 | 24489 ft | 463 kts | 68° |
| 2026-05-04 18:46 | 36.35661 | -85.42720 | 24862 ft | 465 kts | 67° |
| 2026-05-04 18:47 | 36.36804 | -85.38956 | 25227 ft | 467 kts | 66° |
| 2026-05-04 18:47 | 36.37991 | -85.35195 | 25585 ft | 469 kts | 65° |
| 2026-05-04 18:47 | 36.39197 | -85.31411 | 25937 ft | 472 kts | 65° |
| 2026-05-04 18:47 | 36.40387 | -85.27655 | 26281 ft | 474 kts | 65° |
| 2026-05-04 18:48 | 36.41587 | -85.23834 | 26615 ft | 477 kts | 66° |
| 2026-05-04 18:48 | 36.42791 | -85.19970 | 26966 ft | 479 kts | 66° |
| 2026-05-04 18:48 | 36.43991 | -85.16095 | 27291 ft | 482 kts | 66° |
| 2026-05-04 18:48 | 36.45194 | -85.12200 | 27611 ft | 484 kts | 66° |
| 2026-05-04 18:49 | 36.46403 | -85.08281 | 27929 ft | 487 kts | 66° |
| 2026-05-04 18:49 | 36.47618 | -85.04339 | 28243 ft | 489 kts | 66° |
| 2026-05-04 18:49 | 36.48818 | -85.00443 | 28553 ft | 491 kts | 66° |
| 2026-05-04 18:49 | 36.50041 | -84.96472 | 28849 ft | 493 kts | 66° |
| 2026-05-04 18:50 | 36.51340 | -84.92516 | 29112 ft | 494 kts | 63° |
| 2026-05-04 18:50 | 36.52815 | -84.88659 | 29403 ft | 495 kts | 60° |
| 2026-05-04 18:50 | 36.54385 | -84.84838 | 29723 ft | 496 kts | 59° |
| 2026-05-04 18:50 | 36.55980 | -84.81039 | 30111 ft | 495 kts | 59° |
| 2026-05-04 18:51 | 36.57565 | -84.77245 | 30479 ft | 493 kts | 59° |
| 2026-05-04 18:51 | 36.59131 | -84.73444 | 30839 ft | 492 kts | 59° |
| 2026-05-04 18:51 | 36.60674 | -84.69644 | 31141 ft | 492 kts | 60° |
| 2026-05-04 18:51 | 36.62204 | -84.65833 | 31419 ft | 493 kts | 60° |
| 2026-05-04 18:52 | 36.63729 | -84.62007 | 31727 ft | 492 kts | 60° |
| 2026-05-04 18:52 | 36.65248 | -84.58182 | 32065 ft | 491 kts | 60° |
| 2026-05-04 18:52 | 36.66739 | -84.54417 | 32356 ft | 491 kts | 60° |
| 2026-05-04 18:52 | 36.68252 | -84.50597 | 32619 ft | 491 kts | 60° |
| 2026-05-04 18:53 | 36.69762 | -84.46782 | 32890 ft | 491 kts | 60° |
| 2026-05-04 18:53 | 36.71273 | -84.42961 | 33193 ft | 491 kts | 60° |
| 2026-05-04 18:53 | 36.72779 | -84.39149 | 33493 ft | 490 kts | 60° |
| 2026-05-04 18:53 | 36.74283 | -84.35341 | 33771 ft | 490 kts | 60° |
| 2026-05-04 18:54 | 36.75786 | -84.31529 | 34039 ft | 489 kts | 60° |
| 2026-05-04 18:54 | 36.77285 | -84.27724 | 34302 ft | 488 kts | 60° |
| 2026-05-04 18:54 | 36.78778 | -84.23927 | 34581 ft | 487 kts | 60° |
| 2026-05-04 18:54 | 36.80268 | -84.20135 | 34838 ft | 486 kts | 60° |
| 2026-05-04 18:55 | 36.81755 | -84.16347 | 35001 ft | 487 kts | 60° |
| 2026-05-04 18:55 | 36.86255 | -84.04865 | 35013 ft | 499 kts | 60° |
| 2026-05-04 18:56 | 36.89317 | -83.97020 | 35003 ft | 503 kts | 60° |
| 2026-05-04 18:56 | 36.92386 | -83.89131 | 34995 ft | 504 kts | 60° |
| 2026-05-04 18:57 | 36.94932 | -83.82573 | 34993 ft | 505 kts | 60° |
| 2026-05-04 18:57 | 36.98496 | -83.73375 | 34988 ft | 504 kts | 60° |
| 2026-05-04 18:58 | 37.01050 | -83.66766 | 34985 ft | 504 kts | 60° |
| 2026-05-04 18:58 | 37.04094 | -83.58870 | 34983 ft | 503 kts | 60° |
| 2026-05-04 18:59 | 37.07105 | -83.51043 | 34984 ft | 502 kts | 60° |
| 2026-05-04 18:59 | 37.10124 | -83.43173 | 34987 ft | 501 kts | 60° |
| 2026-05-04 19:00 | 37.13136 | -83.35303 | 34977 ft | 500 kts | 60° |
| 2026-05-04 19:00 | 37.16139 | -83.27438 | 34992 ft | 499 kts | 60° |
| 2026-05-04 19:01 | 37.19129 | -83.19583 | 34980 ft | 499 kts | 60° |
| 2026-05-04 19:01 | 37.22114 | -83.11725 | 34976 ft | 498 kts | 60° |
| 2026-05-04 19:02 | 37.25071 | -83.03920 | 34986 ft | 498 kts | 61° |
| 2026-05-04 19:02 | 37.27637 | -82.95789 | 34975 ft | 502 kts | 67° |
| 2026-05-04 19:03 | 37.29916 | -82.87496 | 34980 ft | 502 kts | 68° |
| 2026-05-04 19:03 | 37.32202 | -82.79204 | 34975 ft | 502 kts | 67° |
| 2026-05-04 19:04 | 37.34526 | -82.70939 | 34977 ft | 501 kts | 67° |
| 2026-05-04 19:04 | 37.36846 | -82.62733 | 34986 ft | 501 kts | 67° |
| 2026-05-04 19:05 | 37.39174 | -82.54471 | 34985 ft | 500 kts | 67° |
| 2026-05-04 19:05 | 37.41489 | -82.46215 | 34985 ft | 500 kts | 67° |
| 2026-05-04 19:06 | 37.43780 | -82.38019 | 34978 ft | 498 kts | 67° |
| 2026-05-04 19:06 | 37.46071 | -82.29798 | 34966 ft | 497 kts | 67° |
| 2026-05-04 19:07 | 37.48365 | -82.21539 | 34985 ft | 496 kts | 68° |
| 2026-05-04 19:07 | 37.50626 | -82.13379 | 34979 ft | 496 kts | 68° |
| 2026-05-04 19:08 | 37.52898 | -82.05150 | 34967 ft | 497 kts | 68° |
| 2026-05-04 19:08 | 37.55163 | -81.96924 | 34972 ft | 497 kts | 68° |
| 2026-05-04 19:09 | 37.57421 | -81.88693 | 34984 ft | 497 kts | 68° |
| 2026-05-04 19:09 | 37.59678 | -81.80445 | 34978 ft | 498 kts | 68° |
| 2026-05-04 19:10 | 37.61931 | -81.72181 | 34976 ft | 498 kts | 68° |
| 2026-05-04 19:10 | 37.64167 | -81.63951 | 34982 ft | 499 kts | 68° |
| 2026-05-04 19:11 | 37.66412 | -81.55663 | 34981 ft | 499 kts | 68° |
| 2026-05-04 19:11 | 37.68653 | -81.47361 | 34986 ft | 498 kts | 68° |
| 2026-05-04 19:12 | 37.71996 | -81.34927 | 34999 ft | 498 kts | 68° |
| 2026-05-04 19:13 | 37.74214 | -81.26645 | 35006 ft | 497 kts | 68° |
| 2026-05-04 19:13 | 37.76425 | -81.18365 | 35010 ft | 497 kts | 68° |
| 2026-05-04 19:14 | 37.78694 | -81.10168 | 35006 ft | 495 kts | 64° |
| 2026-05-04 19:14 | 37.81501 | -81.02253 | 35016 ft | 492 kts | 61° |
| 2026-05-04 19:15 | 37.84386 | -80.94381 | 35007 ft | 493 kts | 62° |
| 2026-05-04 19:15 | 37.87189 | -80.86464 | 35001 ft | 492 kts | 63° |
| 2026-05-04 19:16 | 37.89980 | -80.78551 | 35000 ft | 491 kts | 62° |
| 2026-05-04 19:16 | 37.92793 | -80.70657 | 35002 ft | 491 kts | 62° |
| 2026-05-04 19:17 | 37.95582 | -80.62817 | 35003 ft | 491 kts | 63° |
| 2026-05-04 19:17 | 37.98373 | -80.54933 | 35008 ft | 490 kts | 63° |
| 2026-05-04 19:18 | 38.01157 | -80.47044 | 35007 ft | 490 kts | 63° |
| 2026-05-04 19:18 | 38.03933 | -80.39154 | 35009 ft | 490 kts | 63° |
| 2026-05-04 19:19 | 38.06709 | -80.31248 | 35007 ft | 489 kts | 63° |
| 2026-05-04 19:19 | 38.09477 | -80.23353 | 34997 ft | 489 kts | 63° |
| 2026-05-04 19:20 | 38.12255 | -80.15536 | 35012 ft | 489 kts | 63° |
| 2026-05-04 19:20 | 38.15054 | -80.07672 | 35010 ft | 489 kts | 63° |
| 2026-05-04 19:21 | 38.17846 | -79.99790 | 35022 ft | 489 kts | 63° |
| 2026-05-04 19:21 | 38.20607 | -79.91959 | 34994 ft | 475 kts | 63° |
| 2026-05-04 19:22 | 38.23283 | -79.84350 | 35007 ft | 468 kts | 63° |
| 2026-05-04 19:22 | 38.25950 | -79.76763 | 34526 ft | 469 kts | 63° |
| 2026-05-04 19:22 | 38.27268 | -79.72996 | 34206 ft | 462 kts | 62° |
| 2026-05-04 19:23 | 38.28544 | -79.69320 | 33772 ft | 459 kts | 63° |
| 2026-05-04 19:23 | 38.29819 | -79.65617 | 33337 ft | 455 kts | 63° |
| 2026-05-04 19:23 | 38.31079 | -79.61946 | 32936 ft | 451 kts | 62° |
| 2026-05-04 19:23 | 38.32328 | -79.58301 | 32538 ft | 447 kts | 62° |
| 2026-05-04 19:24 | 38.33570 | -79.54678 | 32127 ft | 444 kts | 62° |
| 2026-05-04 19:24 | 38.34800 | -79.51089 | 31718 ft | 440 kts | 62° |
| 2026-05-04 19:24 | 38.36021 | -79.47522 | 31335 ft | 437 kts | 62° |
| 2026-05-04 19:24 | 38.37232 | -79.43982 | 30946 ft | 434 kts | 62° |
| 2026-05-04 19:25 | 38.38435 | -79.40464 | 30555 ft | 432 kts | 61° |
| 2026-05-04 19:25 | 38.39629 | -79.36965 | 30172 ft | 430 kts | 61° |
| 2026-05-04 19:25 | 38.40824 | -79.33463 | 29740 ft | 429 kts | 62° |
| 2026-05-04 19:25 | 38.41984 | -79.30028 | 29313 ft | 427 kts | 64° |
| 2026-05-04 19:26 | 38.42895 | -79.26411 | 28802 ft | 432 kts | 73° |
| 2026-05-04 19:26 | 38.43557 | -79.22658 | 28355 ft | 431 kts | 75° |
| 2026-05-04 19:26 | 38.44168 | -79.18935 | 27936 ft | 429 kts | 75° |
| 2026-05-04 19:26 | 38.44781 | -79.15220 | 27530 ft | 426 kts | 75° |
| 2026-05-04 19:27 | 38.45408 | -79.11541 | 27136 ft | 423 kts | 74° |
| 2026-05-04 19:27 | 38.46046 | -79.07887 | 26750 ft | 420 kts | 74° |
| 2026-05-04 19:27 | 38.46683 | -79.04256 | 26360 ft | 418 kts | 74° |
| 2026-05-04 19:27 | 38.47315 | -79.00648 | 26032 ft | 414 kts | 74° |
| 2026-05-04 19:28 | 38.47938 | -78.97072 | 25665 ft | 411 kts | 75° |
| 2026-05-04 19:28 | 38.48549 | -78.93561 | 25297 ft | 409 kts | 75° |
| 2026-05-04 19:28 | 38.49165 | -78.90017 | 24922 ft | 407 kts | 75° |
| 2026-05-04 19:28 | 38.49775 | -78.86499 | 24544 ft | 405 kts | 75° |
| 2026-05-04 19:29 | 38.50367 | -78.82996 | 24198 ft | 403 kts | 76° |
| 2026-05-04 19:29 | 38.50920 | -78.79503 | 23855 ft | 400 kts | 77° |
| 2026-05-04 19:29 | 38.51459 | -78.76023 | 23492 ft | 398 kts | 77° |
| 2026-05-04 19:29 | 38.51998 | -78.72554 | 23056 ft | 397 kts | 77° |
| 2026-05-04 19:30 | 38.52539 | -78.69097 | 22639 ft | 395 kts | 77° |
| 2026-05-04 19:30 | 38.53077 | -78.65666 | 22234 ft | 392 kts | 77° |
| 2026-05-04 19:30 | 38.53614 | -78.62277 | 21929 ft | 386 kts | 77° |
| 2026-05-04 19:30 | 38.54150 | -78.58925 | 21555 ft | 384 kts | 77° |
| 2026-05-04 19:31 | 38.54683 | -78.55592 | 21179 ft | 382 kts | 77° |
| 2026-05-04 19:31 | 38.55206 | -78.52314 | 20808 ft | 380 kts | 77° |
| 2026-05-04 19:31 | 38.55731 | -78.49009 | 20449 ft | 378 kts | 77° |
| 2026-05-04 19:31 | 38.56253 | -78.45725 | 20082 ft | 377 kts | 77° |
| 2026-05-04 19:32 | 38.56771 | -78.42451 | 19725 ft | 375 kts | 77° |
| 2026-05-04 19:32 | 38.57288 | -78.39185 | 19353 ft | 374 kts | 77° |
| 2026-05-04 19:32 | 38.57840 | -78.35936 | 18995 ft | 373 kts | 76° |
| 2026-05-04 19:32 | 38.58411 | -78.32706 | 18628 ft | 371 kts | 76° |
| 2026-05-04 19:33 | 38.58975 | -78.29502 | 18274 ft | 369 kts | 76° |
| 2026-05-04 19:33 | 38.59533 | -78.26300 | 17836 ft | 369 kts | 76° |
| 2026-05-04 19:33 | 38.60207 | -78.23167 | 17509 ft | 363 kts | 68° |
| 2026-05-04 19:33 | 38.61153 | -78.20193 | 17157 ft | 360 kts | 64° |
| 2026-05-04 19:34 | 38.62153 | -78.17265 | 16795 ft | 358 kts | 64° |
| 2026-05-04 19:34 | 38.63133 | -78.14347 | 16445 ft | 356 kts | 65° |
| 2026-05-04 19:34 | 38.64090 | -78.11424 | 16089 ft | 354 kts | 65° |
| 2026-05-04 19:34 | 38.65030 | -78.08518 | 15744 ft | 353 kts | 65° |
| 2026-05-04 19:35 | 38.65962 | -78.05621 | 15393 ft | 352 kts | 65° |
| 2026-05-04 19:35 | 38.66879 | -78.02765 | 15039 ft | 351 kts | 65° |
| 2026-05-04 19:35 | 38.67803 | -77.99883 | 14696 ft | 350 kts | 65° |
| 2026-05-04 19:35 | 38.68726 | -77.97004 | 14341 ft | 349 kts | 65° |
| 2026-05-04 19:36 | 38.69648 | -77.94128 | 13991 ft | 349 kts | 65° |
| 2026-05-04 19:36 | 38.70567 | -77.91259 | 13613 ft | 348 kts | 65° |
| 2026-05-04 19:36 | 38.71484 | -77.88393 | 13238 ft | 347 kts | 65° |
| 2026-05-04 19:36 | 38.72396 | -77.85539 | 12997 ft | 341 kts | 66° |
| 2026-05-04 19:37 | 38.73336 | -77.82786 | 12808 ft | 333 kts | 57° |
| 2026-05-04 19:37 | 38.74730 | -77.80473 | 12502 ft | 327 kts | 44° |
| 2026-05-04 19:37 | 38.76269 | -77.78336 | 12186 ft | 325 kts | 44° |
| 2026-05-04 19:37 | 38.77802 | -77.76212 | 11869 ft | 324 kts | 44° |
| 2026-05-04 19:38 | 38.79312 | -77.74073 | 11557 ft | 323 kts | 45° |
| 2026-05-04 19:38 | 38.80786 | -77.71959 | 11256 ft | 321 kts | 45° |
| 2026-05-04 19:38 | 38.82270 | -77.69816 | 10931 ft | 321 kts | 46° |
| 2026-05-04 19:38 | 38.83729 | -77.67649 | 10588 ft | 321 kts | 46° |
| 2026-05-04 19:39 | 38.85177 | -77.65465 | 10250 ft | 322 kts | 47° |
| 2026-05-04 19:39 | 38.86615 | -77.63290 | 9897 ft | 315 kts | 47° |
| 2026-05-04 19:39 | 38.87990 | -77.61209 | 9849 ft | 298 kts | 47° |
| 2026-05-04 19:39 | 38.89352 | -77.59155 | 9250 ft | 300 kts | 47° |
| 2026-05-04 19:40 | 38.90692 | -77.57138 | 8831 ft | 296 kts | 47° |
| 2026-05-04 19:40 | 38.92016 | -77.55142 | 8517 ft | 290 kts | 47° |
| 2026-05-04 19:40 | 38.93314 | -77.53185 | 8178 ft | 286 kts | 47° |
| 2026-05-04 19:40 | 38.94524 | -77.51182 | 8003 ft | 282 kts | 59° |
| 2026-05-04 19:41 | 38.95375 | -77.48918 | 7863 ft | 283 kts | 66° |
| 2026-05-04 19:41 | 38.96111 | -77.46600 | 7565 ft | 284 kts | 68° |
| 2026-05-04 19:41 | 38.96847 | -77.44243 | 7129 ft | 284 kts | 68° |
| 2026-05-04 19:41 | 38.97591 | -77.41919 | 6683 ft | 284 kts | 67° |
| 2026-05-04 19:42 | 38.98347 | -77.39611 | 6322 ft | 282 kts | 67° |
| 2026-05-04 19:42 | 38.99129 | -77.37242 | 5965 ft | 279 kts | 67° |
| 2026-05-04 19:42 | 38.99891 | -77.34952 | 5624 ft | 277 kts | 67° |
| 2026-05-04 19:42 | 39.00653 | -77.32669 | 5264 ft | 276 kts | 67° |
| 2026-05-04 19:43 | 39.01404 | -77.30429 | 4906 ft | 275 kts | 68° |
| 2026-05-04 19:43 | 39.02125 | -77.28139 | 4568 ft | 272 kts | 78° |
| 2026-05-04 19:43 | 39.02079 | -77.25810 | 4194 ft | 263 kts | 115° |
| 2026-05-04 19:43 | 39.01173 | -77.23857 | 4113 ft | 242 kts | 128° |
| 2026-05-04 19:44 | 39.00538 | -77.22706 | 4050 ft | 235 kts | 129° |
| 2026-05-04 19:44 | 38.99322 | -77.20501 | 3932 ft | 222 kts | 129° |
| 2026-05-04 19:44 | 38.98397 | -77.18817 | 3326 ft | 241 kts | 128° |
| 2026-05-04 19:44 | 38.97436 | -77.17049 | 3037 ft | 237 kts | 128° |
| 2026-05-04 19:45 | 38.96516 | -77.15369 | 2945 ft | 222 kts | 133° |
| 2026-05-04 19:45 | 38.95811 | -77.14428 | 2832 ft | 210 kts | 142° |
| 2026-05-04 19:45 | 38.94741 | -77.13247 | 2708 ft | 194 kts | 143° |
| 2026-05-04 19:45 | 38.93762 | -77.12179 | 2737 ft | 180 kts | 145° |
| 2026-05-04 19:46 | 38.92746 | -77.11355 | 2687 ft | 171 kts | 158° |
| 2026-05-04 19:46 | 38.91693 | -77.10695 | 2736 ft | 164 kts | 159° |
| 2026-05-04 19:46 | 38.90802 | -77.09836 | 2710 ft | 163 kts | 130° |
| 2026-05-04 19:46 | 38.90419 | -77.08443 | 2622 ft | 170 kts | 94° |
| 2026-05-04 19:47 | 38.90276 | -77.06978 | 2245 ft | 163 kts | 124° |
| 2026-05-04 19:47 | 38.89491 | -77.05978 | 1750 ft | 160 kts | 143° |
| 2026-05-04 19:47 | 38.88689 | -77.04996 | 1353 ft | 158 kts | 140° |
| 2026-05-04 19:47 | 38.87850 | -77.04087 | 792 ft | 159 kts | 162° |
| 2026-05-04 19:48 | 38.86810 | -77.03941 | 319 ft | 150 kts | 182° |
| 2026-05-04 19:48 | 38.85817 | -77.03814 | 33 ft | 135 kts | 183° |
| 2026-05-04 19:48 | 38.85051 | -77.03769 | 19 ft | 51 kts | 175° |
| 2026-05-04 19:48 | 38.84891 | -77.03828 | 17 ft | 18 kts | 242° |
| 2026-05-04 19:49 | 38.84850 | -77.03874 | 18 ft | 0 kts | 199° |
| 2026-05-04 19:49 | 38.84835 | -77.03878 | 18 ft | 9 kts | 185° |
| 2026-05-04 19:49 | 38.84742 | -77.03901 | 20 ft | 14 kts | 201° |
| 2026-05-04 19:49 | 38.84653 | -77.03952 | 20 ft | 14 kts | 206° |
| 2026-05-04 19:50 | 38.84581 | -77.04022 | 22 ft | 13 kts | 259° |
| 2026-05-04 19:50 | 38.84634 | -77.04108 | 22 ft | 12 kts | 331° |
| 2026-05-04 19:50 | 38.84670 | -77.04162 | 23 ft | 7 kts | 289° |
| 2026-05-04 19:50 | 38.84678 | -77.04184 | 26 ft | 0 kts | 297° |